Time;durP1;ratioP1;P1;durP2;ratioP2;P2;SDS_P1;SDS_P2;PMS_P1;PMS_P2;Temp;Humidity;BMP_temperature;BMP_pressure;BME280_temperature;BME280_humidity;BME280_pressure;Samples;Min_cycle;Max_cycle;Signal;HPM_P1;HPM_P2
2022/04/15 00:00:08;;;;;;;53.13;28.02;;;;;;;3.13;69.85;94950.41;1727505;81;21018;-55
2022/04/15 00:02:38;;;;;;;56.85;27.52;;;;;;;3.14;69.66;94947.89;1733204;81;21044;-54
2022/04/15 00:07:52;;;;;;;55.75;26.48;;;;;;;3.05;69.57;94939.39;1738334;81;21001;-54
2022/04/15 00:10:22;;;;;;;60.38;26.00;;;;;;;3.00;69.62;94948.72;1714990;83;21017;-54
2022/04/15 00:12:55;;;;;;;49.20;25.32;;;;;;;2.91;69.82;94941.55;1730732;81;21013;-54
2022/04/15 00:15:22;;;;;;;49.58;23.55;;;;;;;2.84;69.87;94938.12;1716782;83;21115;-54
2022/04/15 00:17:52;;;;;;;44.10;22.67;;;;;;;2.70;70.28;94943.58;1729038;81;20950;-54
2022/04/15 00:20:20;;;;;;;45.30;23.15;;;;;;;2.61;70.68;94941.84;1729341;81;20997;-55
2022/04/15 00:22:48;;;;;;;49.00;24.72;;;;;;;2.54;71.21;94942.63;1750183;81;20960;-54
2022/04/15 00:25:16;;;;;;;50.50;23.83;;;;;;;2.52;71.38;94945.56;1734137;81;21069;-54
2022/04/15 00:27:44;;;;;;;44.98;21.93;;;;;;;2.49;71.76;94932.77;1736731;81;21132;-55
2022/04/15 00:30:12;;;;;;;43.58;22.70;;;;;;;2.47;71.60;94941.89;1707638;81;21306;-54
2022/04/15 00:32:41;;;;;;;46.45;23.42;;;;;;;2.42;71.55;94937.63;1739268;81;20977;-54
2022/04/15 00:35:09;;;;;;;41.42;22.60;;;;;;;2.38;71.77;94938.22;1729952;81;21018;-54
2022/04/15 00:37:37;;;;;;;41.15;20.77;;;;;;;2.40;71.81;94939.96;1742593;81;21509;-53
2022/04/15 00:40:07;;;;;;;39.45;20.20;;;;;;;2.41;71.87;94932.58;1726387;81;21572;-53
2022/04/15 00:42:33;;;;;;;44.00;22.77;;;;;;;2.43;71.86;94926.17;1726741;81;21543;-54
2022/04/15 00:45:02;;;;;;;45.75;22.52;;;;;;;2.46;72.14;94933.52;1744101;81;20959;-55
2022/04/15 00:47:53;;;;;;;46.08;23.90;;;;;;;2.49;72.01;94923.27;1730020;83;20989;-52
2022/04/15 00:50:30;;;;;;;56.08;30.62;;;;;;;2.50;71.97;94927.53;1740364;81;21426;-53
2022/04/15 00:53:00;;;;;;;43.33;23.42;;;;;;;2.54;72.10;94933.72;1726937;81;20986;-54
2022/04/15 00:55:28;;;;;;;38.20;21.97;;;;;;;2.57;71.80;94920.72;1729640;81;21801;-53
2022/04/15 00:57:58;;;;;;;44.33;22.48;;;;;;;2.53;71.43;94923.43;1729164;81;20997;-54
2022/04/15 01:00:26;;;;;;;42.23;21.65;;;;;;;2.47;71.45;94926.36;1733045;81;21022;-55
2022/04/15 01:02:53;;;;;;;45.55;25.43;;;;;;;2.45;71.37;94929.27;1725016;81;21076;-54
2022/04/15 01:05:21;;;;;;;43.25;22.40;;;;;;;2.43;71.78;94926.17;1724068;83;21579;-56
2022/04/15 01:07:50;;;;;;;42.13;22.13;;;;;;;2.45;71.56;94927.34;1736769;81;21224;-55
2022/04/15 01:10:19;;;;;;;45.12;21.42;;;;;;;2.45;71.69;94921.12;1730612;81;20989;-54
2022/04/15 01:12:53;;;;;;;39.67;18.75;;;;;;;2.45;71.58;94922.48;1730192;81;20985;-54
2022/04/15 01:15:23;;;;;;;37.50;20.35;;;;;;;2.43;71.65;94926.17;1727624;81;21026;-55
2022/04/15 01:17:52;;;;;;;33.55;19.95;;;;;;;2.40;71.81;94917.45;1724452;81;20969;-56
2022/04/15 01:20:18;;;;;;;39.65;15.85;;;;;;;2.39;71.75;94925.41;1706561;81;21253;-57
2022/04/15 01:22:47;;;;;;;39.40;16.62;;;;;;;2.40;71.65;94923.67;1709312;83;20996;-53
2022/04/15 01:25:16;;;;;;;38.45;17.62;;;;;;;2.44;71.85;94925.00;1733341;81;21028;-55
2022/04/15 01:27:45;;;;;;;39.33;19.00;;;;;;;2.47;71.70;94925.00;1744883;81;21088;-55
2022/04/15 01:30:15;;;;;;;31.25;15.60;;;;;;;2.47;71.50;94921.53;1728879;81;21758;-54
2022/04/15 01:32:43;;;;;;;28.55;15.28;;;;;;;2.44;71.45;94920.93;1728082;81;21145;-54
2022/04/15 01:35:13;;;;;;;28.05;14.87;;;;;;;2.44;71.61;94927.72;1737479;81;21009;-53
2022/04/15 01:37:40;;;;;;;38.88;15.72;;;;;;;2.45;71.57;94926.55;1729894;81;20970;-54
2022/04/15 01:40:09;;;;;;;36.55;16.12;;;;;;;2.43;71.54;94917.45;1729621;81;21034;-55
2022/04/15 01:42:37;;;;;;;35.80;16.77;;;;;;;2.45;71.47;94919.77;1748923;81;21031;-55
2022/04/15 01:45:07;;;;;;;26.85;15.20;;;;;;;2.42;71.47;94914.55;1707113;81;21151;-56
2022/04/15 01:47:34;;;;;;;39.98;20.32;;;;;;;2.38;71.48;94911.64;1728377;81;21033;-54
2022/04/15 01:50:06;;;;;;;34.53;18.82;;;;;;;2.35;71.49;94915.91;1736269;81;21068;-54
2022/04/15 01:52:32;;;;;;;33.33;19.02;;;;;;;2.37;71.54;94911.45;1749098;81;20991;-54
2022/04/15 01:54:59;;;;;;;41.23;20.32;;;;;;;2.40;71.19;94903.88;1733882;81;21465;-53
2022/04/15 01:57:27;;;;;;;47.80;23.22;;;;;;;2.38;70.89;94904.29;1734942;81;21072;-54
2022/04/15 01:59:55;;;;;;;35.95;19.77;;;;;;;2.30;71.07;94904.09;1739224;81;21006;-55
2022/04/15 02:02:21;;;;;;;37.50;18.95;;;;;;;2.26;71.33;94909.33;1733526;81;20989;-55
2022/04/15 02:04:48;;;;;;;33.33;19.07;;;;;;;2.24;71.43;94905.66;1741301;81;21466;-55
2022/04/15 02:07:15;;;;;;;44.35;20.23;;;;;;;2.22;71.61;94902.57;1755207;81;21037;-55
2022/04/15 02:09:42;;;;;;;36.42;19.60;;;;;;;2.20;71.54;94904.11;1751552;81;21127;-53
2022/04/15 02:12:10;;;;;;;32.25;17.40;;;;;;;2.19;71.70;94898.49;1724311;82;20947;-55
2022/04/15 02:14:37;;;;;;;31.17;17.10;;;;;;;2.18;71.44;94903.73;1733785;82;21000;-54
2022/04/15 02:17:05;;;;;;;29.30;16.25;;;;;;;2.11;71.24;94892.90;1728453;82;21028;-53
2022/04/15 02:19:32;;;;;;;49.42;25.32;;;;;;;2.03;71.43;94889.98;1728427;83;20965;-53
2022/04/15 02:21:59;;;;;;;39.05;23.25;;;;;;;2.03;71.68;94886.70;1735594;81;21271;-60
2022/04/15 02:24:26;;;;;;;41.13;20.40;;;;;;;2.04;71.69;94884.17;1745290;82;21026;-55
2022/04/15 02:26:54;;;;;;;39.23;20.27;;;;;;;2.04;71.69;94884.75;1745191;82;21057;-54
2022/04/15 02:29:21;;;;;;;46.40;22.35;;;;;;;2.07;71.68;94885.31;1745278;82;21438;-54
2022/04/15 02:31:48;;;;;;;48.80;24.18;;;;;;;2.08;71.65;94882.80;1745193;81;20994;-54
2022/04/15 02:34:15;;;;;;;51.23;24.60;;;;;;;2.09;71.55;94881.06;1749967;80;21236;-54
2022/04/15 02:36:42;;;;;;;58.50;27.67;;;;;;;2.08;71.31;94882.23;1755462;81;21019;-53
2022/04/15 02:39:11;;;;;;;40.25;21.75;;;;;;;2.05;71.56;94883.58;1755558;81;21029;-54
2022/04/15 02:41:41;;;;;;;37.05;20.52;;;;;;;2.02;71.44;94878.94;1755535;81;21009;-55
2022/04/15 02:44:08;;;;;;;42.70;19.87;;;;;;;1.95;71.29;94884.38;1755511;81;20972;-54
2022/04/15 02:46:37;;;;;;;40.03;20.68;;;;;;;1.88;71.38;94878.95;1749217;81;21012;-55
2022/04/15 02:49:05;;;;;;;51.48;23.52;;;;;;;1.86;71.40;94880.70;1745039;82;20998;-54
2022/04/15 02:51:32;;;;;;;43.87;21.95;;;;;;;1.82;71.55;94875.88;1745302;82;21037;-55
2022/04/15 02:53:58;;;;;;;42.40;19.37;;;;;;;1.84;71.61;94874.11;1724108;82;20954;-54
2022/04/15 02:56:25;;;;;;;37.90;18.15;;;;;;;1.84;71.47;94872.75;1724390;82;21580;-53
2022/04/15 02:58:52;;;;;;;50.00;22.17;;;;;;;1.84;71.50;94875.47;1745042;81;21151;-55
2022/04/15 03:01:20;;;;;;;54.18;25.52;;;;;;;1.82;71.53;94877.23;1745182;81;21434;-55
2022/04/15 03:03:49;;;;;;;67.15;29.70;;;;;;;1.82;71.48;94883.22;1745255;80;20938;-54
2022/04/15 03:06:17;;;;;;;54.70;26.70;;;;;;;1.78;71.59;94872.95;1745207;81;21005;-55
2022/04/15 03:08:43;;;;;;;36.08;19.05;;;;;;;1.76;71.67;94873.33;1745168;82;21072;-54
2022/04/15 03:11:11;;;;;;;68.52;27.80;;;;;;;1.66;71.40;94870.63;1744961;81;21395;-54
2022/04/15 03:13:38;;;;;;;80.30;35.78;;;;;;;1.59;71.78;94871.98;1740395;81;20972;-54
2022/04/15 03:16:06;;;;;;;71.10;31.30;;;;;;;1.55;72.28;94872.58;1728265;82;20989;-55
2022/04/15 03:18:35;;;;;;;73.12;28.80;;;;;;;1.47;72.51;94868.30;1728383;82;21556;-54
2022/04/15 03:21:03;;;;;;;43.40;22.10;;;;;;;1.39;72.92;94864.04;1728315;82;21429;-54
2022/04/15 03:23:31;;;;;;;37.93;19.12;;;;;;;1.36;73.16;94866.14;1728443;81;20989;-55
2022/04/15 03:25:58;;;;;;;50.67;24.87;;;;;;;1.32;72.97;94870.03;1728330;82;20966;-56
2022/04/15 03:28:25;;;;;;;59.70;25.72;;;;;;;1.27;72.93;94865.76;1728349;83;21030;-56
2022/04/15 03:30:52;;;;;;;54.05;24.98;;;;;;;1.26;73.29;94865.56;1728117;83;20978;-56
2022/04/15 03:33:18;;;;;;;56.23;29.87;;;;;;;1.31;73.40;94868.48;1728451;82;20966;-55
2022/04/15 03:35:45;;;;;;;51.50;25.15;;;;;;;1.35;73.48;94857.81;1752064;80;21241;-55
2022/04/15 03:38:12;;;;;;;44.13;22.90;;;;;;;1.38;73.67;94858.42;1755419;81;21444;-55
2022/04/15 03:40:39;;;;;;;39.42;20.95;;;;;;;1.45;73.57;94861.70;1730707;81;21017;-54
2022/04/15 03:43:06;;;;;;;39.20;20.68;;;;;;;1.47;73.36;94858.80;1742469;81;21511;-55
2022/04/15 03:45:33;;;;;;;44.83;23.02;;;;;;;1.49;73.01;94859.19;1736860;81;21166;-55
2022/04/15 03:48:00;;;;;;;53.58;25.05;;;;;;;1.47;73.14;94855.34;1716287;81;21833;-56
2022/04/15 03:50:27;;;;;;;69.40;33.18;;;;;;;1.50;73.14;94849.14;1729495;81;21025;-53
2022/04/15 03:52:53;;;;;;;63.17;33.10;;;;;;;1.54;72.99;94858.80;1707475;81;21539;-55
2022/04/15 03:55:22;;;;;;;88.33;40.98;;;;;;;1.55;72.75;94855.52;1727512;81;21541;-54
2022/04/15 03:57:49;;;;;;;96.82;44.45;;;;;;;1.55;72.69;94854.16;1727664;81;21022;-54
2022/04/15 04:00:22;;;;;;;92.10;40.38;;;;;;;1.53;72.55;94857.84;1743689;81;21221;-54
2022/04/15 04:02:51;;;;;;;96.97;42.45;;;;;;;1.52;72.71;94865.19;1727176;81;21008;-53
2022/04/15 04:05:17;;;;;;;110.68;46.40;;;;;;;1.57;72.68;94860.77;1737810;81;21089;-53
2022/04/15 04:07:46;;;;;;;102.92;43.85;;;;;;;1.63;72.85;94864.63;1717177;81;21062;-56
2022/04/15 04:10:13;;;;;;;100.58;42.75;;;;;;;1.70;72.56;94867.33;1741582;81;21072;-54
2022/04/15 04:12:43;;;;;;;74.55;31.42;;;;;;;1.73;72.58;94857.84;1739755;81;21218;-54
2022/04/15 04:15:12;;;;;;;84.35;33.63;;;;;;;1.77;72.57;94855.14;1733752;81;20958;-54
2022/04/15 04:17:39;;;;;;;61.75;28.17;;;;;;;1.81;72.60;94856.66;1702218;83;21052;-54
2022/04/15 04:20:07;;;;;;;57.17;28.47;;;;;;;1.88;72.55;94867.53;1725147;81;21060;-56
2022/04/15 04:22:36;;;;;;;58.92;27.32;;;;;;;1.87;72.19;94861.13;1735404;81;21029;-57
2022/04/15 04:25:04;;;;;;;69.77;31.90;;;;;;;1.88;72.23;94856.67;1741657;81;21932;-56
2022/04/15 04:27:32;;;;;;;75.55;36.95;;;;;;;1.89;72.31;94854.16;1739283;81;20971;-55
2022/04/15 04:29:59;;;;;;;112.20;45.08;;;;;;;1.92;72.34;94853.97;1728048;81;20974;-57
2022/04/15 04:32:26;;;;;;;122.40;51.60;;;;;;;2.06;72.90;94860.71;1734442;81;21022;-56
2022/04/15 04:34:53;;;;;;;133.97;58.65;;;;;;;2.71;73.10;94852.78;1735084;81;21600;-56
2022/04/15 04:37:21;;;;;;;147.50;63.38;;;;;;;3.43;71.59;94856.86;1725132;81;21025;-56
2022/04/15 04:39:48;;;;;;;128.50;58.87;;;;;;;3.66;69.71;94853.79;1733228;81;21163;-55
2022/04/15 04:42:16;;;;;;;133.10;58.40;;;;;;;3.67;69.17;94852.02;1738463;81;21001;-56
2022/04/15 04:44:43;;;;;;;125.47;54.60;;;;;;;3.59;69.12;94850.53;1702489;83;21045;-56
2022/04/15 04:47:11;;;;;;;109.15;49.30;;;;;;;3.57;69.08;94848.02;1743729;81;21100;-54
2022/04/15 04:49:38;;;;;;;108.95;41.75;;;;;;;3.60;68.98;94848.00;1721625;81;21972;-55
2022/04/15 04:52:07;;;;;;;73.70;37.55;;;;;;;3.59;68.38;94844.30;1731080;81;21065;-57
2022/04/15 04:54:34;;;;;;;79.35;38.38;;;;;;;3.49;67.99;94846.53;1735002;81;21052;-56
2022/04/15 04:57:03;;;;;;;77.03;36.90;;;;;;;3.37;68.15;94833.97;1705277;81;20974;-56
2022/04/15 04:59:31;;;;;;;78.17;37.80;;;;;;;3.31;68.32;94842.37;1735625;81;20945;-56
2022/04/15 05:01:58;;;;;;;95.17;39.18;;;;;;;3.30;68.42;94836.17;1728665;81;21220;-55
2022/04/15 05:04:27;;;;;;;98.58;41.15;;;;;;;3.30;68.65;94832.67;1756438;81;21026;-55
2022/04/15 05:06:53;;;;;;;85.80;37.48;;;;;;;3.32;69.21;94830.33;1730730;81;21378;-55
2022/04/15 05:09:21;;;;;;;94.55;44.83;;;;;;;3.49;69.14;94825.53;1726115;81;21557;-60
2022/04/15 05:11:48;;;;;;;96.25;45.00;;;;;;;3.65;68.82;94831.24;1735442;81;21021;-59
2022/04/15 05:14:17;;;;;;;74.27;40.12;;;;;;;3.77;68.30;94821.24;1704849;82;21212;-55
2022/04/15 05:16:44;;;;;;;49.08;31.77;;;;;;;3.85;68.00;94828.16;1726117;81;21021;-53
2022/04/15 05:19:10;;;;;;;51.58;31.02;;;;;;;3.89;67.73;94824.05;1703340;81;21057;-54
2022/04/15 05:21:39;;;;;;;54.50;29.65;;;;;;;3.89;67.73;94823.45;1726134;81;21018;-55
2022/04/15 05:24:08;;;;;;;66.02;31.77;;;;;;;3.93;67.75;94822.85;1728450;81;21005;-56
2022/04/15 05:26:38;;;;;;;59.23;31.93;;;;;;;4.01;67.81;94826.25;1746945;81;21439;-54
2022/04/15 05:29:05;;;;;;;76.30;37.17;;;;;;;4.16;67.44;94823.59;1728580;81;21064;-56
2022/04/15 05:31:31;;;;;;;65.42;35.10;;;;;;;4.29;67.33;94813.73;1730031;81;21158;-55
2022/04/15 05:34:00;;;;;;;49.15;27.30;;;;;;;4.45;66.87;94814.71;1707989;81;21022;-56
2022/04/15 05:36:28;;;;;;;46.98;26.12;;;;;;;4.57;66.14;94814.20;1747240;81;21075;-55
2022/04/15 05:38:55;;;;;;;50.45;27.77;;;;;;;4.69;65.50;94812.31;1748286;81;21318;-58
2022/04/15 05:41:22;;;;;;;48.85;25.32;;;;;;;4.75;65.07;94812.03;1723281;81;20972;-56
2022/04/15 05:43:51;;;;;;;39.15;19.87;;;;;;;4.81;64.68;94806.91;1738470;81;21028;-61
2022/04/15 05:46:19;;;;;;;30.55;18.23;;;;;;;4.90;64.35;94807.95;1745710;81;22295;-53
2022/04/15 05:48:46;;;;;;;35.50;18.60;;;;;;;4.99;63.62;94810.94;1752548;80;20951;-58
2022/04/15 05:51:13;;;;;;;33.73;19.40;;;;;;;5.08;63.35;94801.67;1767292;80;21098;-56
2022/04/15 05:53:40;;;;;;;49.50;21.35;;;;;;;5.14;63.08;94794.57;1716673;82;20952;-54
2022/04/15 05:56:08;;;;;;;33.85;17.90;;;;;;;5.30;62.87;94793.37;1749238;81;21083;-55
2022/04/15 05:58:36;;;;;;;32.40;18.67;;;;;;;5.50;62.37;94788.20;1749836;80;21010;-53
2022/04/15 06:01:04;;;;;;;41.68;19.20;;;;;;;5.66;62.05;94788.33;1775767;80;21047;-54
2022/04/15 06:03:32;;;;;;;47.35;22.85;;;;;;;5.81;61.62;94782.83;1754761;80;21434;-56
2022/04/15 06:06:00;;;;;;;61.37;32.55;;;;;;;6.00;61.42;94782.11;1744674;81;20969;-57
2022/04/15 06:08:28;;;;;;;48.60;25.97;;;;;;;6.14;60.89;94782.47;1749455;80;20992;-53
2022/04/15 06:10:55;;;;;;;46.65;25.30;;;;;;;6.25;60.65;94776.98;1747913;80;21073;-53
2022/04/15 06:13:25;;;;;;;48.55;27.15;;;;;;;6.43;60.27;94771.17;1747339;80;21019;-52
2022/04/15 06:16:00;;;;;;;41.60;23.60;;;;;;;6.59;59.95;94772.03;1750229;79;21023;-59
2022/04/15 06:18:34;;;;;;;37.53;22.27;;;;;;;6.71;59.45;94770.63;1758863;80;21110;-56
2022/04/15 06:21:02;;;;;;;45.60;25.32;;;;;;;6.80;59.04;94761.25;1757304;80;21036;-55
2022/04/15 06:23:29;;;;;;;44.53;22.60;;;;;;;6.93;58.99;94762.16;1763724;80;21065;-53
2022/04/15 06:25:58;;;;;;;59.58;26.42;;;;;;;7.08;58.87;94752.62;1745102;80;21624;-55
2022/04/15 06:28:26;;;;;;;44.42;24.35;;;;;;;7.25;58.61;94754.20;1754885;80;21101;-57
2022/04/15 06:30:56;;;;;;;50.35;28.25;;;;;;;7.45;58.00;94754.91;1743102;81;21035;-58
2022/04/15 06:33:23;;;;;;;39.48;23.80;;;;;;;7.62;57.37;94750.98;1750830;80;21068;-52
2022/04/15 06:35:51;;;;;;;46.65;24.07;;;;;;;7.78;56.69;94738.66;1740979;78;21563;-60
2022/04/15 06:38:19;;;;;;;34.53;21.80;;;;;;;7.96;56.17;94742.30;1732876;81;21076;-56
2022/04/15 06:40:46;;;;;;;35.05;19.67;;;;;;;8.15;55.59;94736.72;1730789;81;21212;-54
2022/04/15 06:43:14;;;;;;;38.67;20.40;;;;;;;8.37;54.93;94739.09;1733581;81;21032;-56
2022/04/15 06:45:42;;;;;;;35.80;18.12;;;;;;;8.58;54.46;94743.23;1727217;81;21076;-56
2022/04/15 06:48:15;;;;;;;49.80;21.60;;;;;;;8.76;53.86;94732.53;1731556;81;21065;-57
2022/04/15 06:50:42;;;;;;;39.10;20.77;;;;;;;8.93;53.49;94726.52;1730391;81;21056;-57
2022/04/15 06:53:10;;;;;;;35.78;16.80;;;;;;;9.14;53.41;94725.29;1710959;82;22757;-55
2022/04/15 06:55:38;;;;;;;37.98;18.05;;;;;;;9.36;52.64;94718.52;1708589;81;21043;-57
2022/04/15 06:58:05;;;;;;;34.27;17.12;;;;;;;9.56;51.62;94708.86;1732848;81;21500;-55
2022/04/15 07:00:34;;;;;;;33.75;15.50;;;;;;;9.72;50.81;94717.56;1727020;81;21048;-56
2022/04/15 07:03:01;;;;;;;24.25;15.00;;;;;;;9.90;50.09;94703.42;1726875;81;21107;-54
2022/04/15 07:05:27;;;;;;;32.73;16.65;;;;;;;10.14;49.96;94705.20;1725258;81;21700;-56
2022/04/15 07:07:56;;;;;;;27.30;14.25;;;;;;;10.34;49.84;94702.92;1731051;81;21052;-57
2022/04/15 07:10:26;;;;;;;27.05;15.20;;;;;;;10.53;49.17;94696.34;1733389;81;21040;-54
2022/04/15 07:12:53;;;;;;;25.23;13.50;;;;;;;10.70;48.84;94695.70;1730048;81;21220;-53
2022/04/15 07:15:23;;;;;;;35.65;13.93;;;;;;;10.87;47.56;94693.68;1727649;81;21048;-55
2022/04/15 07:17:49;;;;;;;30.45;12.47;;;;;;;10.99;46.98;94693.44;1737052;81;22299;-58
2022/04/15 07:20:17;;;;;;;24.55;10.35;;;;;;;11.11;46.24;94686.46;1703939;81;21631;-57
2022/04/15 07:22:44;;;;;;;19.20;10.63;;;;;;;11.24;45.66;94684.39;1726444;81;22211;-54
2022/04/15 07:25:13;;;;;;;24.77;13.32;;;;;;;11.39;45.27;94685.34;1704742;82;21089;-55
2022/04/15 07:27:39;;;;;;;26.20;11.38;;;;;;;11.58;45.36;94679.33;1733644;81;21004;-55
2022/04/15 07:30:08;;;;;;;17.95;9.65;;;;;;;11.78;44.98;94670.83;1729910;81;21115;-55
2022/04/15 07:32:36;;;;;;;23.50;11.12;;;;;;;11.98;44.05;94671.16;1727953;81;21004;-55
2022/04/15 07:35:06;;;;;;;21.68;10.95;;;;;;;12.15;43.86;94669.65;1731877;81;21081;-54
2022/04/15 07:37:33;;;;;;;18.52;9.85;;;;;;;12.34;43.54;94668.42;1726545;81;21035;-56
2022/04/15 07:40:00;;;;;;;20.80;9.30;;;;;;;12.50;42.92;94669.50;1743445;81;21003;-54
2022/04/15 07:42:28;;;;;;;15.25;9.78;;;;;;;12.66;42.70;94661.66;1734752;81;21271;-54
2022/04/15 07:44:55;;;;;;;22.67;10.00;;;;;;;12.89;41.67;94656.09;1704154;81;21018;-59
2022/04/15 07:47:23;;;;;;;37.95;12.58;;;;;;;13.12;41.89;94653.43;1727970;81;21068;-56
2022/04/15 07:49:51;;;;;;;18.48;11.03;;;;;;;13.37;42.03;94642.00;1726358;81;21039;-57
2022/04/15 07:52:19;;;;;;;24.65;10.65;;;;;;;13.66;41.76;94644.16;1727958;81;21054;-54
2022/04/15 07:54:46;;;;;;;18.25;9.65;;;;;;;13.90;40.65;94639.40;1726826;81;21153;-54
2022/04/15 07:57:13;;;;;;;17.35;9.35;;;;;;;14.08;40.34;94640.66;1679819;84;21043;-54
2022/04/15 07:59:40;;;;;;;29.20;10.93;;;;;;;14.26;39.88;94627.50;1661481;84;21150;-54
2022/04/15 08:02:08;;;;;;;23.02;10.53;;;;;;;14.42;39.80;94628.45;1653643;84;21074;-54
2022/04/15 08:04:36;;;;;;;20.70;9.63;;;;;;;14.64;39.35;94634.40;1674223;84;21621;-52
2022/04/15 08:07:04;;;;;;;19.10;9.35;;;;;;;14.82;38.87;94618.36;1684623;84;21274;-55
2022/04/15 08:09:32;;;;;;;23.22;11.38;;;;;;;15.02;38.92;94621.22;1659999;84;21095;-53
2022/04/15 08:12:00;;;;;;;23.47;9.70;;;;;;;15.22;38.06;94617.14;1658724;84;21072;-55
2022/04/15 08:14:27;;;;;;;25.12;9.93;;;;;;;15.41;37.83;94610.19;1677506;84;21108;-55
2022/04/15 08:16:54;;;;;;;17.27;8.95;;;;;;;15.61;37.24;94610.23;1691515;84;21077;-55
2022/04/15 08:19:22;;;;;;;16.23;9.35;;;;;;;15.81;36.60;94607.48;1683137;84;21241;-54
2022/04/15 08:21:51;;;;;;;25.48;11.53;;;;;;;15.99;35.88;94597.52;1687003;84;21083;-57
2022/04/15 08:24:20;;;;;;;20.27;12.73;;;;;;;16.14;35.48;94605.15;1655439;84;21127;-59
2022/04/15 08:26:49;;;;;;;23.32;11.85;;;;;;;16.30;34.85;94597.01;1633084;84;21451;-58
2022/04/15 08:29:18;;;;;;;23.67;11.20;;;;;;;16.45;34.72;94594.16;1677898;84;21491;-58
2022/04/15 08:31:47;;;;;;;27.27;11.33;;;;;;;16.63;34.72;94593.24;1658487;84;21267;-58
2022/04/15 08:34:13;;;;;;;16.97;9.50;;;;;;;16.83;34.35;94581.30;1678985;83;21016;-58
2022/04/15 08:36:43;;;;;;;23.38;10.20;;;;;;;17.02;33.74;94574.14;1682493;82;21058;-59
2022/04/15 08:39:09;;;;;;;17.32;8.88;;;;;;;17.20;32.87;94571.78;1674453;83;21020;-61
2022/04/15 08:41:40;;;;;;;12.80;8.00;;;;;;;17.35;32.50;94564.09;1691454;82;21074;-63
2022/04/15 08:44:08;;;;;;;23.17;8.57;;;;;;;17.53;31.92;94554.59;1694333;83;21149;-61
2022/04/15 08:46:36;;;;;;;16.35;8.75;;;;;;;17.73;31.27;94564.20;1694803;82;21013;-61
2022/04/15 08:49:03;;;;;;;20.65;11.33;;;;;;;17.89;30.33;94555.17;1696331;83;21009;-61
2022/04/15 08:51:30;;;;;;;30.65;13.13;;;;;;;18.06;29.98;94554.62;1668938;84;21037;-61
2022/04/15 08:53:58;;;;;;;18.75;10.30;;;;;;;18.18;29.85;94548.59;1699644;83;21513;-61
2022/04/15 08:56:26;;;;;;;24.35;11.70;;;;;;;18.38;29.80;94542.87;1727860;82;21289;-55
2022/04/15 08:58:56;;;;;;;23.40;9.80;;;;;;;18.61;29.29;94543.07;1715475;82;20989;-55
2022/04/15 09:01:23;;;;;;;18.42;8.28;;;;;;;18.79;28.12;94542.59;1689196;82;21021;-56
2022/04/15 09:03:50;;;;;;;15.20;7.83;;;;;;;18.91;27.69;94532.34;1686024;82;21525;-55
2022/04/15 09:06:17;;;;;;;11.97;6.90;;;;;;;19.07;27.17;94528.80;1704030;82;21041;-61
2022/04/15 09:09:04;;;;;;;9.58;5.53;;;;;;;19.26;26.36;94529.84;1699697;83;21817;-60
2022/04/15 09:11:36;;;;;;;8.40;4.00;;;;;;;19.44;25.34;94529.31;1680669;82;21091;-57
2022/04/15 09:14:11;;;;;;;8.18;3.70;;;;;;;19.61;24.55;94525.86;1710352;82;21109;-59
2022/04/15 09:16:41;;;;;;;20.80;4.47;;;;;;;19.77;24.18;94524.30;1685465;82;21017;-60
2022/04/15 09:19:09;;;;;;;9.98;4.60;;;;;;;19.94;25.45;94520.16;1707681;82;21153;-58
2022/04/15 09:21:38;;;;;;;11.55;6.05;;;;;;;20.13;24.52;94516.95;1690039;82;21279;-57
2022/04/15 09:24:07;;;;;;;7.62;3.65;;;;;;;20.29;23.80;94513.32;1709465;82;21528;-58
2022/04/15 09:26:36;;;;;;;8.58;3.65;;;;;;;20.46;23.93;94506.39;1717989;82;21545;-54
2022/04/15 09:29:03;;;;;;;7.12;3.72;;;;;;;20.67;24.05;94506.13;1691628;82;21032;-57
2022/04/15 09:31:30;;;;;;;5.45;3.47;;;;;;;20.82;21.84;94501.58;1707372;82;21101;-56
2022/04/15 09:34:00;;;;;;;8.60;3.37;;;;;;;20.93;20.79;94504.33;1665372;82;21148;-53
2022/04/15 09:36:34;;;;;;;5.40;2.60;;;;;;;21.05;20.45;94498.75;1715545;82;21036;-59
2022/04/15 09:39:10;;;;;;;10.18;3.17;;;;;;;21.15;20.03;94497.16;1711974;82;22081;-57
2022/04/15 09:41:34;;;;;;;7.92;3.02;;;;;;;21.22;20.51;94490.36;1711485;82;21641;-58
2022/04/15 09:44:01;;;;;;;9.85;3.87;;;;;;;21.35;20.58;94488.33;1711613;82;21076;-60
2022/04/15 09:46:30;;;;;;;8.45;3.83;;;;;;;21.48;20.71;94484.27;1703101;82;21219;-62
2022/04/15 09:49:03;;;;;;;18.10;3.55;;;;;;;21.68;20.49;94488.03;1712993;82;21145;-61
2022/04/15 09:51:37;;;;;;;13.83;4.50;;;;;;;21.83;20.58;94478.58;1707429;82;21155;-59
2022/04/15 09:54:04;;;;;;;10.70;3.00;;;;;;;22.02;19.90;94477.97;1704504;82;21178;-54
2022/04/15 09:56:34;;;;;;;9.23;2.83;;;;;;;22.19;20.13;94482.84;1706786;82;21112;-56
2022/04/15 09:59:08;;;;;;;20.37;4.10;;;;;;;22.38;19.42;94479.44;1679514;84;21357;-59
2022/04/15 10:01:42;;;;;;;9.43;3.10;;;;;;;22.51;19.94;94468.28;1711246;82;21465;-57
2022/04/15 10:04:10;;;;;;;10.10;4.20;;;;;;;22.68;19.20;94473.00;1708791;82;21554;-57
2022/04/15 10:06:41;;;;;;;16.48;4.90;;;;;;;22.88;19.47;94469.64;1685192;84;21106;-58
2022/04/15 10:09:12;;;;;;;36.10;6.47;;;;;;;23.06;19.39;94464.63;1710244;82;21066;-58
2022/04/15 10:11:46;;;;;;;10.65;3.60;;;;;;;23.17;18.69;94472.91;1704635;82;21166;-59
2022/04/15 10:14:15;;;;;;;11.05;3.95;;;;;;;23.23;18.59;94462.34;1706810;82;22193;-59
2022/04/15 10:16:43;;;;;;;5.90;3.02;;;;;;;23.43;18.30;94458.19;1709369;82;20995;-57
2022/04/15 10:19:11;;;;;;;8.50;3.60;;;;;;;23.70;17.48;94463.30;1702615;82;21079;-57
2022/04/15 10:21:41;;;;;;;7.50;3.40;;;;;;;23.92;17.24;94454.47;1703660;82;21153;-58
2022/04/15 10:24:10;;;;;;;6.72;5.53;;;;;;;24.09;17.21;94442.23;1703610;82;21060;-57
2022/04/15 10:26:46;;;;;;;4.30;3.20;;;;;;;24.21;17.04;94451.30;1710703;82;21592;-58
2022/04/15 10:29:13;;;;;;;15.38;5.83;;;;;;;24.47;16.83;94451.91;1706336;82;21011;-58
2022/04/15 10:31:46;;;;;;;8.80;3.05;;;;;;;24.88;16.54;94445.75;1684060;82;21529;-58
2022/04/15 10:34:17;;;;;;;14.00;3.62;;;;;;;25.23;15.73;94443.77;1704311;82;21100;-59
2022/04/15 10:36:52;;;;;;;13.08;3.35;;;;;;;25.58;15.60;94448.77;1702272;82;20996;-56
2022/04/15 10:39:23;;;;;;;2.55;1.50;;;;;;;25.80;14.53;94448.80;1703941;82;21089;-59
2022/04/15 10:41:58;;;;;;;7.83;2.67;;;;;;;26.01;13.71;94439.79;1713293;82;21033;-59
2022/04/15 10:44:40;;;;;;;7.25;3.55;;;;;;;26.38;13.77;94439.88;1704098;82;21582;-58
2022/04/15 10:47:23;;;;;;;4.67;2.65;;;;;;;26.72;13.41;94436.17;1689767;84;21113;-58
2022/04/15 10:50:06;;;;;;;9.83;2.27;;;;;;;27.04;13.51;94431.54;1703476;82;21262;-58
2022/04/15 10:52:35;;;;;;;3.85;2.22;;;;;;;27.26;12.85;94446.38;1688871;83;21052;-57
2022/04/15 10:55:16;;;;;;;11.75;2.75;;;;;;;27.42;13.28;94435.86;1698257;82;21052;-59
2022/04/15 10:57:41;;;;;;;10.13;4.80;;;;;;;27.61;13.05;94439.80;1706861;82;21114;-59
2022/04/15 11:03:28;;;;;;;21.62;8.60;;;;;;;27.99;13.89;94437.72;1708120;82;21075;-58
2022/04/15 11:05:59;;;;;;;6.47;2.90;;;;;;;28.29;12.95;94443.31;1713636;82;28848;-58
2022/04/15 11:08:27;;;;;;;5.12;3.05;;;;;;;28.47;12.09;94442.16;1694203;83;21090;-58
2022/04/15 11:10:59;;;;;;;2.55;1.15;;;;;;;28.52;11.95;94433.46;1684924;82;21005;-58
2022/04/15 11:13:44;;;;;;;20.23;2.55;;;;;;;28.61;11.69;94448.42;1712110;82;21020;-58
2022/04/15 11:16:16;;;;;;;9.90;1.65;;;;;;;28.68;11.57;94438.39;1706072;82;21140;-57
2022/04/15 11:19:00;;;;;;;8.30;1.30;;;;;;;28.56;11.59;94435.91;1714587;82;21065;-55
2022/04/15 11:21:37;;;;;;;12.47;2.70;;;;;;;28.53;11.25;94429.95;1719225;82;21081;-61
2022/04/15 11:24:09;;;;;;;9.53;3.00;;;;;;;28.52;12.08;94428.45;1708547;82;21140;-63
2022/04/15 11:26:39;;;;;;;8.48;1.70;;;;;;;28.69;12.00;94431.40;1710991;82;21021;-63
2022/04/15 11:29:07;;;;;;;10.23;1.87;;;;;;;28.83;11.24;94429.83;1712117;82;21104;-65
2022/04/15 11:31:37;;;;;;;9.20;2.10;;;;;;;28.86;12.31;94431.50;1666489;82;21512;-64
2022/04/15 11:34:07;;;;;;;14.93;2.58;;;;;;;28.87;11.58;94428.11;1717813;82;21081;-62
2022/04/15 11:36:37;;;;;;;11.38;3.87;;;;;;;28.89;11.49;94420.47;1709828;82;21006;-60